sensor_id;sensor_type;location;lat;lon;timestamp;P1;durP1;ratioP1;P2;durP2;ratioP2
16994;SDS011;8614;48.522;9.206;2022-10-15T00:01:21;7.70;;;7.10;;
16994;SDS011;8614;48.522;9.206;2022-10-15T00:03:49;6.63;;;6.33;;
16994;SDS011;8614;48.522;9.206;2022-10-15T00:06:17;2.70;;;2.60;;
16994;SDS011;8614;48.522;9.206;2022-10-15T00:08:47;2.87;;;2.77;;
16994;SDS011;8614;48.522;9.206;2022-10-15T00:11:15;3.03;;;2.90;;
16994;SDS011;8614;48.522;9.206;2022-10-15T00:13:43;3.00;;;2.80;;
16994;SDS011;8614;48.522;9.206;2022-10-15T00:16:11;3.10;;;2.90;;
16994;SDS011;8614;48.522;9.206;2022-10-15T00:18:39;2.87;;;2.73;;
16994;SDS011;8614;48.522;9.206;2022-10-15T00:21:07;2.90;;;2.70;;
16994;SDS011;8614;48.522;9.206;2022-10-15T00:23:35;2.90;;;2.70;;
16994;SDS011;8614;48.522;9.206;2022-10-15T00:26:06;3.00;;;2.70;;
16994;SDS011;8614;48.522;9.206;2022-10-15T00:28:34;2.90;;;2.70;;
16994;SDS011;8614;48.522;9.206;2022-10-15T00:31:02;3.00;;;2.80;;
16994;SDS011;8614;48.522;9.206;2022-10-15T00:33:31;2.90;;;2.80;;
16994;SDS011;8614;48.522;9.206;2022-10-15T00:35:59;7.80;;;7.40;;
16994;SDS011;8614;48.522;9.206;2022-10-15T00:38:27;8.93;;;8.43;;
16994;SDS011;8614;48.522;9.206;2022-10-15T00:40:54;8.40;;;8.00;;
16994;SDS011;8614;48.522;9.206;2022-10-15T00:43:36;8.40;;;7.90;;
16994;SDS011;8614;48.522;9.206;2022-10-15T00:46:05;7.57;;;7.17;;
16994;SDS011;8614;48.522;9.206;2022-10-15T00:48:40;6.70;;;6.40;;
16994;SDS011;8614;48.522;9.206;2022-10-15T00:51:07;6.50;;;6.20;;
16994;SDS011;8614;48.522;9.206;2022-10-15T00:53:35;6.10;;;5.70;;
16994;SDS011;8614;48.522;9.206;2022-10-15T00:56:01;5.77;;;5.43;;
16994;SDS011;8614;48.522;9.206;2022-10-15T00:58:29;5.40;;;5.10;;
16994;SDS011;8614;48.522;9.206;2022-10-15T01:00:59;5.20;;;4.90;;
16994;SDS011;8614;48.522;9.206;2022-10-15T01:03:26;4.97;;;4.67;;
16994;SDS011;8614;48.522;9.206;2022-10-15T01:05:53;4.60;;;4.30;;
16994;SDS011;8614;48.522;9.206;2022-10-15T01:08:20;4.30;;;4.10;;
16994;SDS011;8614;48.522;9.206;2022-10-15T01:10:49;4.07;;;3.87;;
16994;SDS011;8614;48.522;9.206;2022-10-15T01:13:28;3.97;;;3.77;;
16994;SDS011;8614;48.522;9.206;2022-10-15T01:16:04;4.00;;;3.80;;
16994;SDS011;8614;48.522;9.206;2022-10-15T01:18:38;4.13;;;3.90;;
16994;SDS011;8614;48.522;9.206;2022-10-15T01:21:10;3.60;;;3.50;;
16994;SDS011;8614;48.522;9.206;2022-10-15T01:33:04;3.30;;;3.20;;
16994;SDS011;8614;48.522;9.206;2022-10-15T01:35:45;3.40;;;3.30;;
16994;SDS011;8614;48.522;9.206;2022-10-15T01:38:19;3.30;;;3.10;;
16994;SDS011;8614;48.522;9.206;2022-10-15T01:40:51;3.40;;;3.20;;
16994;SDS011;8614;48.522;9.206;2022-10-15T01:43:25;3.20;;;3.10;;
16994;SDS011;8614;48.522;9.206;2022-10-15T01:46:25;3.40;;;3.20;;
16994;SDS011;8614;48.522;9.206;2022-10-15T01:49:01;3.20;;;3.03;;
16994;SDS011;8614;48.522;9.206;2022-10-15T01:51:30;3.40;;;3.20;;
16994;SDS011;8614;48.522;9.206;2022-10-15T01:54:00;3.20;;;3.10;;
16994;SDS011;8614;48.522;9.206;2022-10-15T01:56:29;3.93;;;3.67;;
16994;SDS011;8614;48.522;9.206;2022-10-15T01:58:59;4.60;;;4.40;;
16994;SDS011;8614;48.522;9.206;2022-10-15T02:01:30;6.77;;;6.37;;
16994;SDS011;8614;48.522;9.206;2022-10-15T02:03:57;3.03;;;2.90;;
16994;SDS011;8614;48.522;9.206;2022-10-15T02:06:26;2.60;;;2.50;;
16994;SDS011;8614;48.522;9.206;2022-10-15T02:09:00;2.50;;;2.40;;
16994;SDS011;8614;48.522;9.206;2022-10-15T02:11:39;2.37;;;2.27;;
16994;SDS011;8614;48.522;9.206;2022-10-15T02:14:14;2.60;;;2.50;;
16994;SDS011;8614;48.522;9.206;2022-10-15T02:16:48;2.50;;;2.40;;
16994;SDS011;8614;48.522;9.206;2022-10-15T02:19:22;3.33;;;2.50;;
16994;SDS011;8614;48.522;9.206;2022-10-15T02:22:00;2.80;;;2.60;;
16994;SDS011;8614;48.522;9.206;2022-10-15T02:24:32;2.70;;;2.60;;
16994;SDS011;8614;48.522;9.206;2022-10-15T02:27:04;2.40;;;2.30;;
16994;SDS011;8614;48.522;9.206;2022-10-15T02:29:35;2.40;;;2.30;;
16994;SDS011;8614;48.522;9.206;2022-10-15T02:32:05;2.40;;;2.30;;
16994;SDS011;8614;48.522;9.206;2022-10-15T02:34:34;2.40;;;2.30;;
16994;SDS011;8614;48.522;9.206;2022-10-15T02:37:02;2.50;;;2.40;;
16994;SDS011;8614;48.522;9.206;2022-10-15T02:39:32;2.40;;;2.30;;
16994;SDS011;8614;48.522;9.206;2022-10-15T02:42:01;2.50;;;2.40;;
16994;SDS011;8614;48.522;9.206;2022-10-15T02:44:30;2.40;;;2.30;;
16994;SDS011;8614;48.522;9.206;2022-10-15T02:46:57;2.50;;;2.40;;
16994;SDS011;8614;48.522;9.206;2022-10-15T02:49:26;2.40;;;2.30;;
16994;SDS011;8614;48.522;9.206;2022-10-15T02:51:53;2.60;;;2.50;;
16994;SDS011;8614;48.522;9.206;2022-10-15T02:54:20;2.40;;;2.30;;
16994;SDS011;8614;48.522;9.206;2022-10-15T02:56:47;2.50;;;2.40;;
16994;SDS011;8614;48.522;9.206;2022-10-15T02:59:16;2.50;;;2.40;;
16994;SDS011;8614;48.522;9.206;2022-10-15T03:01:44;2.50;;;2.40;;
16994;SDS011;8614;48.522;9.206;2022-10-15T03:04:13;2.60;;;2.50;;
16994;SDS011;8614;48.522;9.206;2022-10-15T03:06:41;2.70;;;2.50;;
16994;SDS011;8614;48.522;9.206;2022-10-15T03:09:08;2.60;;;2.50;;
16994;SDS011;8614;48.522;9.206;2022-10-15T03:11:36;2.60;;;2.50;;
16994;SDS011;8614;48.522;9.206;2022-10-15T03:14:04;2.50;;;2.40;;
16994;SDS011;8614;48.522;9.206;2022-10-15T03:16:32;2.90;;;2.80;;
16994;SDS011;8614;48.522;9.206;2022-10-15T03:18:59;2.50;;;2.40;;
16994;SDS011;8614;48.522;9.206;2022-10-15T03:21:26;2.70;;;2.50;;
16994;SDS011;8614;48.522;9.206;2022-10-15T03:24:02;2.70;;;2.50;;
16994;SDS011;8614;48.522;9.206;2022-10-15T03:26:30;2.60;;;2.50;;
16994;SDS011;8614;48.522;9.206;2022-10-15T03:28:57;2.70;;;2.50;;
16994;SDS011;8614;48.522;9.206;2022-10-15T03:31:36;2.60;;;2.50;;
16994;SDS011;8614;48.522;9.206;2022-10-15T03:34:04;2.70;;;2.60;;
16994;SDS011;8614;48.522;9.206;2022-10-15T03:36:31;2.60;;;2.50;;
16994;SDS011;8614;48.522;9.206;2022-10-15T03:38:59;2.50;;;2.40;;
16994;SDS011;8614;48.522;9.206;2022-10-15T03:41:27;2.60;;;2.50;;
16994;SDS011;8614;48.522;9.206;2022-10-15T03:43:58;2.60;;;2.50;;
16994;SDS011;8614;48.522;9.206;2022-10-15T03:46:26;2.60;;;2.50;;
16994;SDS011;8614;48.522;9.206;2022-10-15T03:48:53;2.70;;;2.60;;
16994;SDS011;8614;48.522;9.206;2022-10-15T03:51:20;2.60;;;2.50;;
16994;SDS011;8614;48.522;9.206;2022-10-15T03:53:50;2.60;;;2.50;;
16994;SDS011;8614;48.522;9.206;2022-10-15T03:56:17;2.60;;;2.50;;
16994;SDS011;8614;48.522;9.206;2022-10-15T03:58:46;2.60;;;2.50;;
16994;SDS011;8614;48.522;9.206;2022-10-15T04:01:14;2.90;;;2.80;;
16994;SDS011;8614;48.522;9.206;2022-10-15T04:03:42;2.53;;;2.43;;
16994;SDS011;8614;48.522;9.206;2022-10-15T04:06:09;2.40;;;2.30;;
16994;SDS011;8614;48.522;9.206;2022-10-15T04:08:37;2.70;;;2.60;;
16994;SDS011;8614;48.522;9.206;2022-10-15T04:11:18;2.60;;;2.50;;
16994;SDS011;8614;48.522;9.206;2022-10-15T04:13:53;2.70;;;2.60;;
16994;SDS011;8614;48.522;9.206;2022-10-15T04:16:20;2.90;;;2.80;;
16994;SDS011;8614;48.522;9.206;2022-10-15T04:18:47;2.60;;;2.50;;
16994;SDS011;8614;48.522;9.206;2022-10-15T04:21:14;2.67;;;2.57;;
16994;SDS011;8614;48.522;9.206;2022-10-15T04:23:45;2.77;;;2.67;;
16994;SDS011;8614;48.522;9.206;2022-10-15T04:26:32;2.60;;;2.50;;
16994;SDS011;8614;48.522;9.206;2022-10-15T04:29:01;2.60;;;2.50;;
16994;SDS011;8614;48.522;9.206;2022-10-15T04:31:29;2.70;;;2.60;;
16994;SDS011;8614;48.522;9.206;2022-10-15T04:33:57;2.77;;;2.60;;
16994;SDS011;8614;48.522;9.206;2022-10-15T04:36:25;2.70;;;2.60;;
16994;SDS011;8614;48.522;9.206;2022-10-15T04:39:00;2.60;;;2.50;;
16994;SDS011;8614;48.522;9.206;2022-10-15T04:41:37;2.90;;;2.80;;
16994;SDS011;8614;48.522;9.206;2022-10-15T04:44:09;2.70;;;2.60;;
16994;SDS011;8614;48.522;9.206;2022-10-15T04:46:37;2.80;;;2.70;;
16994;SDS011;8614;48.522;9.206;2022-10-15T04:49:22;2.70;;;2.60;;
16994;SDS011;8614;48.522;9.206;2022-10-15T04:51:50;2.60;;;2.50;;
16994;SDS011;8614;48.522;9.206;2022-10-15T04:54:21;2.90;;;2.80;;
16994;SDS011;8614;48.522;9.206;2022-10-15T04:56:57;4.10;;;3.90;;
16994;SDS011;8614;48.522;9.206;2022-10-15T04:59:25;3.17;;;3.07;;
16994;SDS011;8614;48.522;9.206;2022-10-15T05:02:10;6.70;;;6.40;;
16994;SDS011;8614;48.522;9.206;2022-10-15T05:04:38;2.60;;;2.50;;
16994;SDS011;8614;48.522;9.206;2022-10-15T05:07:05;3.00;;;2.90;;
16994;SDS011;8614;48.522;9.206;2022-10-15T05:09:32;2.70;;;2.60;;
16994;SDS011;8614;48.522;9.206;2022-10-15T05:11:59;2.90;;;2.80;;
16994;SDS011;8614;48.522;9.206;2022-10-15T05:14:28;2.90;;;2.80;;
16994;SDS011;8614;48.522;9.206;2022-10-15T05:17:10;2.90;;;2.80;;
16994;SDS011;8614;48.522;9.206;2022-10-15T05:19:39;2.80;;;2.70;;
16994;SDS011;8614;48.522;9.206;2022-10-15T05:22:14;3.00;;;2.80;;
16994;SDS011;8614;48.522;9.206;2022-10-15T05:24:47;2.70;;;2.60;;
16994;SDS011;8614;48.522;9.206;2022-10-15T05:27:24;2.90;;;2.80;;
16994;SDS011;8614;48.522;9.206;2022-10-15T05:29:52;2.73;;;2.63;;
16994;SDS011;8614;48.522;9.206;2022-10-15T05:32:19;2.90;;;2.70;;
16994;SDS011;8614;48.522;9.206;2022-10-15T05:34:46;7.27;;;6.87;;
16994;SDS011;8614;48.522;9.206;2022-10-15T05:37:15;3.73;;;3.53;;
16994;SDS011;8614;48.522;9.206;2022-10-15T05:39:41;3.23;;;3.00;;
16994;SDS011;8614;48.522;9.206;2022-10-15T05:42:09;3.47;;;3.33;;
16994;SDS011;8614;48.522;9.206;2022-10-15T05:44:40;3.17;;;3.07;;
16994;SDS011;8614;48.522;9.206;2022-10-15T05:47:08;3.40;;;3.20;;
16994;SDS011;8614;48.522;9.206;2022-10-15T05:49:37;3.30;;;3.20;;
16994;SDS011;8614;48.522;9.206;2022-10-15T05:52:10;3.47;;;2.90;;
16994;SDS011;8614;48.522;9.206;2022-10-15T05:55:00;2.97;;;2.87;;
16994;SDS011;8614;48.522;9.206;2022-10-15T05:57:27;4.43;;;4.17;;
16994;SDS011;8614;48.522;9.206;2022-10-15T05:59:54;5.60;;;5.30;;
16994;SDS011;8614;48.522;9.206;2022-10-15T06:02:22;3.30;;;3.10;;
16994;SDS011;8614;48.522;9.206;2022-10-15T06:04:49;3.40;;;3.20;;
16994;SDS011;8614;48.522;9.206;2022-10-15T06:07:17;3.20;;;3.10;;
16994;SDS011;8614;48.522;9.206;2022-10-15T06:09:44;3.13;;;3.03;;
16994;SDS011;8614;48.522;9.206;2022-10-15T06:12:11;3.40;;;3.20;;
16994;SDS011;8614;48.522;9.206;2022-10-15T06:14:38;3.20;;;3.10;;
16994;SDS011;8614;48.522;9.206;2022-10-15T06:17:05;3.10;;;3.00;;
16994;SDS011;8614;48.522;9.206;2022-10-15T06:19:33;3.10;;;3.00;;
16994;SDS011;8614;48.522;9.206;2022-10-15T06:22:00;3.20;;;3.00;;
16994;SDS011;8614;48.522;9.206;2022-10-15T06:24:27;3.00;;;2.90;;
16994;SDS011;8614;48.522;9.206;2022-10-15T06:26:53;3.20;;;3.10;;
16994;SDS011;8614;48.522;9.206;2022-10-15T06:29:20;4.60;;;4.40;;
16994;SDS011;8614;48.522;9.206;2022-10-15T06:31:50;3.53;;;3.40;;
16994;SDS011;8614;48.522;9.206;2022-10-15T06:34:17;3.67;;;3.47;;
16994;SDS011;8614;48.522;9.206;2022-10-15T06:36:45;6.47;;;6.07;;
16994;SDS011;8614;48.522;9.206;2022-10-15T06:39:12;3.50;;;3.30;;
16994;SDS011;8614;48.522;9.206;2022-10-15T06:41:39;3.80;;;3.60;;
16994;SDS011;8614;48.522;9.206;2022-10-15T06:44:06;3.60;;;3.40;;
16994;SDS011;8614;48.522;9.206;2022-10-15T06:46:33;3.43;;;3.23;;
16994;SDS011;8614;48.522;9.206;2022-10-15T06:49:01;3.30;;;3.10;;
16994;SDS011;8614;48.522;9.206;2022-10-15T06:51:28;3.40;;;3.20;;
16994;SDS011;8614;48.522;9.206;2022-10-15T06:53:56;3.60;;;3.30;;
16994;SDS011;8614;48.522;9.206;2022-10-15T06:56:27;4.90;;;4.70;;
16994;SDS011;8614;48.522;9.206;2022-10-15T06:58:56;3.70;;;3.50;;
16994;SDS011;8614;48.522;9.206;2022-10-15T07:01:23;3.50;;;3.30;;
16994;SDS011;8614;48.522;9.206;2022-10-15T07:03:50;3.50;;;3.30;;
16994;SDS011;8614;48.522;9.206;2022-10-15T07:06:17;3.20;;;3.10;;
16994;SDS011;8614;48.522;9.206;2022-10-15T07:08:44;3.53;;;3.30;;
16994;SDS011;8614;48.522;9.206;2022-10-15T07:11:12;11.07;;;10.47;;
16994;SDS011;8614;48.522;9.206;2022-10-15T07:13:39;10.87;;;10.27;;
16994;SDS011;8614;48.522;9.206;2022-10-15T07:16:07;12.57;;;11.90;;
16994;SDS011;8614;48.522;9.206;2022-10-15T07:18:35;10.43;;;9.83;;
16994;SDS011;8614;48.522;9.206;2022-10-15T07:21:03;9.00;;;8.50;;
16994;SDS011;8614;48.522;9.206;2022-10-15T07:23:31;11.87;;;11.27;;
16994;SDS011;8614;48.522;9.206;2022-10-15T07:25:58;11.00;;;10.40;;
16994;SDS011;8614;48.522;9.206;2022-10-15T07:28:27;10.00;;;9.50;;
16994;SDS011;8614;48.522;9.206;2022-10-15T07:30:54;12.60;;;11.80;;
16994;SDS011;8614;48.522;9.206;2022-10-15T07:33:24;9.20;;;8.70;;
16994;SDS011;8614;48.522;9.206;2022-10-15T07:35:57;11.63;;;11.03;;
16994;SDS011;8614;48.522;9.206;2022-10-15T07:38:24;12.00;;;11.40;;
16994;SDS011;8614;48.522;9.206;2022-10-15T07:40:51;3.60;;;3.40;;
16994;SDS011;8614;48.522;9.206;2022-10-15T07:43:18;11.87;;;11.27;;
16994;SDS011;8614;48.522;9.206;2022-10-15T07:45:47;3.80;;;3.60;;
16994;SDS011;8614;48.522;9.206;2022-10-15T07:48:14;8.63;;;8.13;;
16994;SDS011;8614;48.522;9.206;2022-10-15T07:50:41;13.17;;;12.47;;
16994;SDS011;8614;48.522;9.206;2022-10-15T07:53:08;13.53;;;12.83;;
16994;SDS011;8614;48.522;9.206;2022-10-15T07:55:35;3.40;;;3.20;;
16994;SDS011;8614;48.522;9.206;2022-10-15T07:58:02;3.10;;;3.00;;
16994;SDS011;8614;48.522;9.206;2022-10-15T08:00:32;3.30;;;3.10;;
16994;SDS011;8614;48.522;9.206;2022-10-15T08:03:00;3.27;;;3.17;;
16994;SDS011;8614;48.522;9.206;2022-10-15T08:05:27;9.83;;;9.33;;
16994;SDS011;8614;48.522;9.206;2022-10-15T08:07:54;6.27;;;5.97;;
16994;SDS011;8614;48.522;9.206;2022-10-15T08:10:21;3.40;;;3.20;;
16994;SDS011;8614;48.522;9.206;2022-10-15T08:12:48;3.10;;;3.00;;
16994;SDS011;8614;48.522;9.206;2022-10-15T08:15:15;3.07;;;2.97;;
16994;SDS011;8614;48.522;9.206;2022-10-15T08:17:42;3.37;;;3.17;;
16994;SDS011;8614;48.522;9.206;2022-10-15T08:20:10;9.10;;;8.60;;
16994;SDS011;8614;48.522;9.206;2022-10-15T08:22:37;10.87;;;10.27;;
16994;SDS011;8614;48.522;9.206;2022-10-15T08:25:04;11.83;;;11.23;;
16994;SDS011;8614;48.522;9.206;2022-10-15T08:27:31;10.80;;;10.20;;
16994;SDS011;8614;48.522;9.206;2022-10-15T08:30:02;9.70;;;9.20;;
16994;SDS011;8614;48.522;9.206;2022-10-15T08:32:30;4.20;;;4.00;;
16994;SDS011;8614;48.522;9.206;2022-10-15T08:34:56;9.20;;;8.70;;
16994;SDS011;8614;48.522;9.206;2022-10-15T08:37:25;12.73;;;12.13;;
16994;SDS011;8614;48.522;9.206;2022-10-15T08:39:51;2.90;;;2.80;;
16994;SDS011;8614;48.522;9.206;2022-10-15T08:42:19;12.33;;;11.70;;
16994;SDS011;8614;48.522;9.206;2022-10-15T08:44:50;11.57;;;10.97;;
16994;SDS011;8614;48.522;9.206;2022-10-15T08:47:23;9.40;;;8.90;;
16994;SDS011;8614;48.522;9.206;2022-10-15T08:49:55;2.87;;;2.70;;
16994;SDS011;8614;48.522;9.206;2022-10-15T08:52:28;2.80;;;2.70;;
16994;SDS011;8614;48.522;9.206;2022-10-15T08:55:07;2.90;;;2.80;;
16994;SDS011;8614;48.522;9.206;2022-10-15T08:57:37;7.90;;;7.40;;
16994;SDS011;8614;48.522;9.206;2022-10-15T09:00:11;2.80;;;2.70;;
16994;SDS011;8614;48.522;9.206;2022-10-15T09:02:44;8.37;;;7.93;;
16994;SDS011;8614;48.522;9.206;2022-10-15T09:05:26;8.97;;;8.47;;
16994;SDS011;8614;48.522;9.206;2022-10-15T09:08:01;9.93;;;9.43;;
16994;SDS011;8614;48.522;9.206;2022-10-15T09:10:35;10.80;;;10.20;;
16994;SDS011;8614;48.522;9.206;2022-10-15T09:13:08;10.70;;;10.10;;
16994;SDS011;8614;48.522;9.206;2022-10-15T09:15:40;10.17;;;9.57;;
16994;SDS011;8614;48.522;9.206;2022-10-15T09:18:15;11.73;;;11.13;;
16994;SDS011;8614;48.522;9.206;2022-10-15T09:20:45;11.40;;;10.70;;
16994;SDS011;8614;48.522;9.206;2022-10-15T09:23:15;8.77;;;8.33;;
16994;SDS011;8614;48.522;9.206;2022-10-15T09:25:44;2.80;;;2.60;;
16994;SDS011;8614;48.522;9.206;2022-10-15T09:28:17;3.10;;;2.80;;
16994;SDS011;8614;48.522;9.206;2022-10-15T09:30:49;2.80;;;2.60;;
16994;SDS011;8614;48.522;9.206;2022-10-15T09:33:22;3.00;;;2.80;;
16994;SDS011;8614;48.522;9.206;2022-10-15T09:35:58;3.17;;;2.53;;
16994;SDS011;8614;48.522;9.206;2022-10-15T09:38:35;3.10;;;2.80;;
16994;SDS011;8614;48.522;9.206;2022-10-15T09:41:12;2.67;;;2.53;;
16994;SDS011;8614;48.522;9.206;2022-10-15T09:43:48;3.00;;;2.80;;
16994;SDS011;8614;48.522;9.206;2022-10-15T09:46:18;3.13;;;2.93;;
16994;SDS011;8614;48.522;9.206;2022-10-15T09:48:45;3.20;;;2.60;;
16994;SDS011;8614;48.522;9.206;2022-10-15T09:51:17;2.93;;;2.70;;
16994;SDS011;8614;48.522;9.206;2022-10-15T09:53:54;3.20;;;2.90;;
16994;SDS011;8614;48.522;9.206;2022-10-15T09:56:27;2.57;;;2.37;;
16994;SDS011;8614;48.522;9.206;2022-10-15T09:58:58;5.17;;;4.77;;
16994;SDS011;8614;48.522;9.206;2022-10-15T10:01:26;7.03;;;6.63;;
16994;SDS011;8614;48.522;9.206;2022-10-15T10:04:07;9.03;;;8.53;;
16994;SDS011;8614;48.522;9.206;2022-10-15T10:06:41;9.00;;;8.50;;
16994;SDS011;8614;48.522;9.206;2022-10-15T10:09:11;9.37;;;8.87;;
16994;SDS011;8614;48.522;9.206;2022-10-15T10:11:46;4.10;;;3.17;;
16994;SDS011;8614;48.522;9.206;2022-10-15T10:14:20;2.93;;;2.73;;
16994;SDS011;8614;48.522;9.206;2022-10-15T10:17:03;6.73;;;6.33;;
16994;SDS011;8614;48.522;9.206;2022-10-15T10:19:41;5.80;;;5.30;;
16994;SDS011;8614;48.522;9.206;2022-10-15T10:22:13;5.87;;;5.37;;
16994;SDS011;8614;48.522;9.206;2022-10-15T10:24:43;12.77;;;12.07;;
16994;SDS011;8614;48.522;9.206;2022-10-15T10:27:16;12.03;;;11.33;;
16994;SDS011;8614;48.522;9.206;2022-10-15T10:29:47;3.07;;;2.83;;
16994;SDS011;8614;48.522;9.206;2022-10-15T10:32:20;2.80;;;2.60;;
16994;SDS011;8614;48.522;9.206;2022-10-15T10:34:49;2.50;;;2.40;;
16994;SDS011;8614;48.522;9.206;2022-10-15T10:37:16;9.17;;;8.57;;
16994;SDS011;8614;48.522;9.206;2022-10-15T10:39:45;10.57;;;9.87;;
16994;SDS011;8614;48.522;9.206;2022-10-15T10:42:25;9.77;;;9.07;;
16994;SDS011;8614;48.522;9.206;2022-10-15T10:45:13;9.20;;;8.70;;
16994;SDS011;8614;48.522;9.206;2022-10-15T10:47:45;10.23;;;9.63;;
16994;SDS011;8614;48.522;9.206;2022-10-15T10:53:10;9.10;;;8.30;;
16994;SDS011;8614;48.522;9.206;2022-10-15T10:55:47;9.40;;;8.90;;
16994;SDS011;8614;48.522;9.206;2022-10-15T10:58:17;8.87;;;8.27;;
16994;SDS011;8614;48.522;9.206;2022-10-15T11:00:46;9.87;;;9.27;;
16994;SDS011;8614;48.522;9.206;2022-10-15T11:03:19;6.43;;;6.10;;
16994;SDS011;8614;48.522;9.206;2022-10-15T11:06:00;2.70;;;2.50;;
16994;SDS011;8614;48.522;9.206;2022-10-15T11:08:36;2.47;;;2.33;;
16994;SDS011;8614;48.522;9.206;2022-10-15T11:13:58;2.97;;;2.77;;
16994;SDS011;8614;48.522;9.206;2022-10-15T11:16:33;9.07;;;8.57;;
16994;SDS011;8614;48.522;9.206;2022-10-15T11:19:15;7.93;;;7.47;;
16994;SDS011;8614;48.522;9.206;2022-10-15T11:21:52;11.40;;;10.70;;
16994;SDS011;8614;48.522;9.206;2022-10-15T11:24:28;11.00;;;10.30;;
16994;SDS011;8614;48.522;9.206;2022-10-15T11:27:07;11.37;;;10.67;;
16994;SDS011;8614;48.522;9.206;2022-10-15T11:29:48;2.70;;;2.50;;
16994;SDS011;8614;48.522;9.206;2022-10-15T11:32:23;2.30;;;2.20;;
16994;SDS011;8614;48.522;9.206;2022-10-15T11:35:07;8.47;;;7.93;;
16994;SDS011;8614;48.522;9.206;2022-10-15T11:37:48;8.33;;;7.80;;
16994;SDS011;8614;48.522;9.206;2022-10-15T11:40:29;7.80;;;7.40;;
16994;SDS011;8614;48.522;9.206;2022-10-15T11:43:05;4.73;;;4.43;;
16994;SDS011;8614;48.522;9.206;2022-10-15T11:45:49;6.97;;;6.57;;
16994;SDS011;8614;48.522;9.206;2022-10-15T11:48:26;4.20;;;3.90;;
16994;SDS011;8614;48.522;9.206;2022-10-15T11:51:01;3.70;;;3.50;;
16994;SDS011;8614;48.522;9.206;2022-10-15T11:53:42;2.67;;;2.47;;
16994;SDS011;8614;48.522;9.206;2022-10-15T11:56:19;11.10;;;10.47;;
16994;SDS011;8614;48.522;9.206;2022-10-15T11:58:52;7.70;;;7.20;;
16994;SDS011;8614;48.522;9.206;2022-10-15T12:01:24;2.73;;;2.53;;
16994;SDS011;8614;48.522;9.206;2022-10-15T12:03:59;7.80;;;7.40;;
16994;SDS011;8614;48.522;9.206;2022-10-15T12:06:29;8.20;;;7.70;;
16994;SDS011;8614;48.522;9.206;2022-10-15T12:09:00;10.13;;;9.53;;
16994;SDS011;8614;48.522;9.206;2022-10-15T12:11:34;10.20;;;9.60;;
16994;SDS011;8614;48.522;9.206;2022-10-15T12:14:12;10.03;;;9.50;;
16994;SDS011;8614;48.522;9.206;2022-10-15T12:16:49;9.23;;;8.53;;
16994;SDS011;8614;48.522;9.206;2022-10-15T12:19:25;6.33;;;5.93;;
16994;SDS011;8614;48.522;9.206;2022-10-15T12:21:59;9.93;;;9.23;;
16994;SDS011;8614;48.522;9.206;2022-10-15T12:24:49;10.03;;;9.30;;
16994;SDS011;8614;48.522;9.206;2022-10-15T12:27:22;9.67;;;9.10;;
16994;SDS011;8614;48.522;9.206;2022-10-15T12:32:48;9.80;;;9.30;;
16994;SDS011;8614;48.522;9.206;2022-10-15T12:38:09;9.60;;;9.00;;
16994;SDS011;8614;48.522;9.206;2022-10-15T12:40:43;9.90;;;9.30;;
16994;SDS011;8614;48.522;9.206;2022-10-15T12:43:11;11.00;;;10.40;;
16994;SDS011;8614;48.522;9.206;2022-10-15T12:45:49;9.80;;;9.30;;
16994;SDS011;8614;48.522;9.206;2022-10-15T12:48:29;9.63;;;9.00;;
16994;SDS011;8614;48.522;9.206;2022-10-15T12:57:00;9.83;;;9.03;;
16994;SDS011;8614;48.522;9.206;2022-10-15T12:59:29;10.00;;;9.40;;
16994;SDS011;8614;48.522;9.206;2022-10-15T13:05:24;9.80;;;9.13;;
16994;SDS011;8614;48.522;9.206;2022-10-15T13:07:53;9.90;;;9.30;;
16994;SDS011;8614;48.522;9.206;2022-10-15T13:10:23;9.80;;;9.27;;
16994;SDS011;8614;48.522;9.206;2022-10-15T13:12:55;9.73;;;9.13;;
16994;SDS011;8614;48.522;9.206;2022-10-15T13:15:25;9.57;;;8.97;;
16994;SDS011;8614;48.522;9.206;2022-10-15T13:17:53;9.50;;;9.00;;
16994;SDS011;8614;48.522;9.206;2022-10-15T13:20:29;9.57;;;8.97;;
16994;SDS011;8614;48.522;9.206;2022-10-15T13:23:06;9.53;;;8.90;;
16994;SDS011;8614;48.522;9.206;2022-10-15T13:25:34;9.73;;;9.13;;
16994;SDS011;8614;48.522;9.206;2022-10-15T13:28:01;9.20;;;8.70;;
16994;SDS011;8614;48.522;9.206;2022-10-15T13:30:27;9.70;;;9.00;;
16994;SDS011;8614;48.522;9.206;2022-10-15T13:32:54;10.40;;;9.70;;
16994;SDS011;8614;48.522;9.206;2022-10-15T13:35:22;9.73;;;9.00;;
16994;SDS011;8614;48.522;9.206;2022-10-15T13:37:54;9.47;;;8.83;;
16994;SDS011;8614;48.522;9.206;2022-10-15T13:40:22;9.70;;;9.20;;
16994;SDS011;8614;48.522;9.206;2022-10-15T13:42:57;7.83;;;7.33;;
16994;SDS011;8614;48.522;9.206;2022-10-15T13:45:24;8.60;;;8.10;;
16994;SDS011;8614;48.522;9.206;2022-10-15T13:47:52;9.03;;;8.47;;
16994;SDS011;8614;48.522;9.206;2022-10-15T13:50:21;4.50;;;4.27;;
16994;SDS011;8614;48.522;9.206;2022-10-15T13:52:51;2.63;;;2.53;;
16994;SDS011;8614;48.522;9.206;2022-10-15T13:55:23;4.40;;;4.10;;
16994;SDS011;8614;48.522;9.206;2022-10-15T13:57:55;8.83;;;8.33;;
16994;SDS011;8614;48.522;9.206;2022-10-15T14:00:26;7.70;;;7.10;;
16994;SDS011;8614;48.522;9.206;2022-10-15T14:03:08;3.17;;;2.87;;
16994;SDS011;8614;48.522;9.206;2022-10-15T14:05:39;9.00;;;8.50;;
16994;SDS011;8614;48.522;9.206;2022-10-15T14:08:16;9.03;;;8.43;;
16994;SDS011;8614;48.522;9.206;2022-10-15T14:10:51;11.10;;;10.40;;
16994;SDS011;8614;48.522;9.206;2022-10-15T14:13:19;9.90;;;9.30;;
16994;SDS011;8614;48.522;9.206;2022-10-15T14:15:48;10.20;;;9.50;;
16994;SDS011;8614;48.522;9.206;2022-10-15T14:18:29;11.60;;;10.67;;
16994;SDS011;8614;48.522;9.206;2022-10-15T14:20:59;10.50;;;9.80;;
16994;SDS011;8614;48.522;9.206;2022-10-15T14:23:27;10.00;;;9.30;;
16994;SDS011;8614;48.522;9.206;2022-10-15T14:25:55;10.10;;;9.40;;
16994;SDS011;8614;48.522;9.206;2022-10-15T14:28:25;10.53;;;9.70;;
16994;SDS011;8614;48.522;9.206;2022-10-15T14:30:53;11.03;;;10.03;;
16994;SDS011;8614;48.522;9.206;2022-10-15T14:33:31;10.57;;;9.87;;
16994;SDS011;8614;48.522;9.206;2022-10-15T14:36:13;10.30;;;9.67;;
16994;SDS011;8614;48.522;9.206;2022-10-15T14:38:50;10.20;;;9.60;;
16994;SDS011;8614;48.522;9.206;2022-10-15T14:41:28;10.20;;;9.60;;
16994;SDS011;8614;48.522;9.206;2022-10-15T14:44:00;5.33;;;5.03;;
16994;SDS011;8614;48.522;9.206;2022-10-15T14:46:32;6.90;;;6.50;;
16994;SDS011;8614;48.522;9.206;2022-10-15T14:49:03;10.60;;;10.00;;
16994;SDS011;8614;48.522;9.206;2022-10-15T14:51:50;8.00;;;7.50;;
16994;SDS011;8614;48.522;9.206;2022-10-15T14:54:24;5.00;;;4.70;;
16994;SDS011;8614;48.522;9.206;2022-10-15T14:56:56;2.70;;;2.57;;
16994;SDS011;8614;48.522;9.206;2022-10-15T14:59:26;3.20;;;2.70;;
16994;SDS011;8614;48.522;9.206;2022-10-15T15:01:56;2.20;;;2.10;;
16994;SDS011;8614;48.522;9.206;2022-10-15T15:04:35;2.10;;;2.00;;
16994;SDS011;8614;48.522;9.206;2022-10-15T15:07:15;2.53;;;2.33;;
16994;SDS011;8614;48.522;9.206;2022-10-15T15:09:47;2.33;;;2.23;;
16994;SDS011;8614;48.522;9.206;2022-10-15T15:12:17;2.63;;;2.43;;
16994;SDS011;8614;48.522;9.206;2022-10-15T15:14:47;2.83;;;2.63;;
16994;SDS011;8614;48.522;9.206;2022-10-15T15:17:15;5.70;;;2.80;;
16994;SDS011;8614;48.522;9.206;2022-10-15T15:19:44;9.30;;;8.70;;
16994;SDS011;8614;48.522;9.206;2022-10-15T15:22:12;7.53;;;6.93;;
16994;SDS011;8614;48.522;9.206;2022-10-15T15:24:41;2.67;;;2.30;;
16994;SDS011;8614;48.522;9.206;2022-10-15T15:27:16;5.27;;;4.87;;
16994;SDS011;8614;48.522;9.206;2022-10-15T15:29:47;5.27;;;4.87;;
16994;SDS011;8614;48.522;9.206;2022-10-15T15:32:15;9.70;;;9.10;;
16994;SDS011;8614;48.522;9.206;2022-10-15T15:34:42;6.10;;;5.57;;
16994;SDS011;8614;48.522;9.206;2022-10-15T15:37:11;3.53;;;3.30;;
16994;SDS011;8614;48.522;9.206;2022-10-15T15:39:41;8.13;;;7.63;;
16994;SDS011;8614;48.522;9.206;2022-10-15T15:42:15;7.83;;;7.40;;
16994;SDS011;8614;48.522;9.206;2022-10-15T15:44:44;7.97;;;7.53;;
16994;SDS011;8614;48.522;9.206;2022-10-15T15:47:11;3.63;;;3.43;;
16994;SDS011;8614;48.522;9.206;2022-10-15T15:49:39;2.80;;;2.47;;
16994;SDS011;8614;48.522;9.206;2022-10-15T15:52:07;6.63;;;6.23;;